sensor_id;sensor_type;location;lat;lon;timestamp;P1;durP1;ratioP1;P2;durP2;ratioP2
24411;SDS011;12544;46.760;15.942;2023-11-21T00:00:55;36.50;;;26.63;;
24411;SDS011;12544;46.760;15.942;2023-11-21T00:03:20;38.53;;;27.98;;
24411;SDS011;12544;46.760;15.942;2023-11-21T00:05:48;38.22;;;27.40;;
24411;SDS011;12544;46.760;15.942;2023-11-21T00:08:14;45.22;;;28.23;;
24411;SDS011;12544;46.760;15.942;2023-11-21T00:10:39;38.00;;;26.30;;
24411;SDS011;12544;46.760;15.942;2023-11-21T00:13:05;37.53;;;27.30;;
24411;SDS011;12544;46.760;15.942;2023-11-21T00:15:31;45.33;;;28.80;;
24411;SDS011;12544;46.760;15.942;2023-11-21T00:17:56;38.05;;;27.50;;
24411;SDS011;12544;46.760;15.942;2023-11-21T00:20:22;41.17;;;30.33;;
24411;SDS011;12544;46.760;15.942;2023-11-21T00:22:48;43.88;;;28.40;;
24411;SDS011;12544;46.760;15.942;2023-11-21T00:25:13;41.70;;;27.77;;
24411;SDS011;12544;46.760;15.942;2023-11-21T00:27:41;40.83;;;28.55;;
24411;SDS011;12544;46.760;15.942;2023-11-21T00:30:06;39.35;;;28.25;;
24411;SDS011;12544;46.760;15.942;2023-11-21T00:32:35;45.10;;;29.10;;
24411;SDS011;12544;46.760;15.942;2023-11-21T00:35:02;43.53;;;29.55;;
24411;SDS011;12544;46.760;15.942;2023-11-21T00:37:27;38.00;;;26.17;;
24411;SDS011;12544;46.760;15.942;2023-11-21T00:39:53;37.40;;;26.40;;
24411;SDS011;12544;46.760;15.942;2023-11-21T00:42:19;40.83;;;26.67;;
24411;SDS011;12544;46.760;15.942;2023-11-21T00:44:44;32.83;;;24.88;;
24411;SDS011;12544;46.760;15.942;2023-11-21T00:47:10;37.38;;;26.77;;
24411;SDS011;12544;46.760;15.942;2023-11-21T00:49:36;39.22;;;28.70;;
24411;SDS011;12544;46.760;15.942;2023-11-21T00:52:01;56.28;;;33.90;;
24411;SDS011;12544;46.760;15.942;2023-11-21T00:54:27;56.53;;;35.58;;
24411;SDS011;12544;46.760;15.942;2023-11-21T00:56:53;47.35;;;32.05;;
24411;SDS011;12544;46.760;15.942;2023-11-21T00:59:19;43.72;;;28.65;;
24411;SDS011;12544;46.760;15.942;2023-11-21T01:01:44;39.38;;;27.45;;
24411;SDS011;12544;46.760;15.942;2023-11-21T01:04:10;31.13;;;23.52;;
24411;SDS011;12544;46.760;15.942;2023-11-21T01:06:36;33.53;;;23.38;;
24411;SDS011;12544;46.760;15.942;2023-11-21T01:09:01;32.88;;;23.27;;
24411;SDS011;12544;46.760;15.942;2023-11-21T01:11:32;34.83;;;25.00;;
24411;SDS011;12544;46.760;15.942;2023-11-21T01:14:01;36.95;;;24.98;;
24411;SDS011;12544;46.760;15.942;2023-11-21T01:16:28;34.92;;;25.55;;
24411;SDS011;12544;46.760;15.942;2023-11-21T01:18:54;34.75;;;26.20;;
24411;SDS011;12544;46.760;15.942;2023-11-21T01:21:19;37.70;;;26.85;;
24411;SDS011;12544;46.760;15.942;2023-11-21T01:23:45;41.13;;;26.60;;
24411;SDS011;12544;46.760;15.942;2023-11-21T01:26:12;33.22;;;25.20;;
24411;SDS011;12544;46.760;15.942;2023-11-21T01:28:38;39.38;;;27.08;;
24411;SDS011;12544;46.760;15.942;2023-11-21T01:31:04;35.83;;;25.67;;
24411;SDS011;12544;46.760;15.942;2023-11-21T01:33:29;40.45;;;26.98;;
24411;SDS011;12544;46.760;15.942;2023-11-21T01:35:55;37.35;;;27.17;;
24411;SDS011;12544;46.760;15.942;2023-11-21T01:38:21;42.53;;;28.17;;
24411;SDS011;12544;46.760;15.942;2023-11-21T01:40:47;42.15;;;27.15;;
24411;SDS011;12544;46.760;15.942;2023-11-21T01:43:12;46.33;;;29.73;;
24411;SDS011;12544;46.760;15.942;2023-11-21T01:45:38;52.15;;;32.25;;
24411;SDS011;12544;46.760;15.942;2023-11-21T01:48:04;43.50;;;30.05;;
24411;SDS011;12544;46.760;15.942;2023-11-21T01:50:31;40.90;;;29.58;;
24411;SDS011;12544;46.760;15.942;2023-11-21T01:52:58;37.80;;;25.70;;
24411;SDS011;12544;46.760;15.942;2023-11-21T01:55:25;35.95;;;25.35;;
24411;SDS011;12544;46.760;15.942;2023-11-21T01:57:52;41.97;;;29.38;;
24411;SDS011;12544;46.760;15.942;2023-11-21T02:00:19;40.50;;;27.42;;
24411;SDS011;12544;46.760;15.942;2023-11-21T02:02:45;42.67;;;26.98;;
24411;SDS011;12544;46.760;15.942;2023-11-21T02:05:12;40.55;;;27.15;;
24411;SDS011;12544;46.760;15.942;2023-11-21T02:07:39;41.92;;;29.00;;
24411;SDS011;12544;46.760;15.942;2023-11-21T02:10:07;40.53;;;26.13;;
24411;SDS011;12544;46.760;15.942;2023-11-21T02:12:33;36.00;;;25.77;;
24411;SDS011;12544;46.760;15.942;2023-11-21T02:15:04;39.47;;;26.60;;
24411;SDS011;12544;46.760;15.942;2023-11-21T02:17:34;37.83;;;26.30;;
24411;SDS011;12544;46.760;15.942;2023-11-21T02:20:01;40.55;;;28.05;;
24411;SDS011;12544;46.760;15.942;2023-11-21T02:22:30;40.33;;;27.88;;
24411;SDS011;12544;46.760;15.942;2023-11-21T02:25:02;38.60;;;27.67;;
24411;SDS011;12544;46.760;15.942;2023-11-21T02:27:28;42.83;;;27.33;;
24411;SDS011;12544;46.760;15.942;2023-11-21T02:29:54;33.65;;;24.58;;
24411;SDS011;12544;46.760;15.942;2023-11-21T02:32:19;31.27;;;23.80;;
24411;SDS011;12544;46.760;15.942;2023-11-21T02:34:47;36.22;;;25.52;;
24411;SDS011;12544;46.760;15.942;2023-11-21T02:37:13;35.22;;;25.55;;
24411;SDS011;12544;46.760;15.942;2023-11-21T02:39:39;38.30;;;27.70;;
24411;SDS011;12544;46.760;15.942;2023-11-21T02:42:05;35.10;;;25.48;;
24411;SDS011;12544;46.760;15.942;2023-11-21T02:44:30;38.25;;;27.80;;
24411;SDS011;12544;46.760;15.942;2023-11-21T02:46:56;41.17;;;28.40;;
24411;SDS011;12544;46.760;15.942;2023-11-21T02:49:23;39.88;;;28.40;;
24411;SDS011;12544;46.760;15.942;2023-11-21T02:51:53;40.60;;;27.02;;
24411;SDS011;12544;46.760;15.942;2023-11-21T02:54:19;38.22;;;27.17;;
24411;SDS011;12544;46.760;15.942;2023-11-21T02:56:47;42.42;;;29.67;;
24411;SDS011;12544;46.760;15.942;2023-11-21T02:59:13;38.63;;;25.70;;
24411;SDS011;12544;46.760;15.942;2023-11-21T03:01:38;42.20;;;26.83;;
24411;SDS011;12544;46.760;15.942;2023-11-21T03:04:04;44.22;;;28.75;;
24411;SDS011;12544;46.760;15.942;2023-11-21T03:06:30;36.70;;;26.88;;
24411;SDS011;12544;46.760;15.942;2023-11-21T03:08:55;33.35;;;24.27;;
24411;SDS011;12544;46.760;15.942;2023-11-21T03:11:21;33.63;;;24.65;;
24411;SDS011;12544;46.760;15.942;2023-11-21T03:13:47;38.72;;;25.83;;
24411;SDS011;12544;46.760;15.942;2023-11-21T03:16:12;37.15;;;25.48;;
24411;SDS011;12544;46.760;15.942;2023-11-21T03:18:38;37.67;;;25.98;;
24411;SDS011;12544;46.760;15.942;2023-11-21T03:21:04;35.17;;;25.92;;
24411;SDS011;12544;46.760;15.942;2023-11-21T03:23:31;36.17;;;25.75;;
24411;SDS011;12544;46.760;15.942;2023-11-21T03:25:57;37.72;;;26.15;;
24411;SDS011;12544;46.760;15.942;2023-11-21T03:28:23;30.45;;;24.65;;
24411;SDS011;12544;46.760;15.942;2023-11-21T03:30:49;37.40;;;27.40;;
24411;SDS011;12544;46.760;15.942;2023-11-21T03:33:14;45.35;;;29.63;;
24411;SDS011;12544;46.760;15.942;2023-11-21T03:35:40;36.20;;;26.48;;
24411;SDS011;12544;46.760;15.942;2023-11-21T03:38:07;39.75;;;28.00;;
24411;SDS011;12544;46.760;15.942;2023-11-21T03:40:32;36.45;;;27.58;;
24411;SDS011;12544;46.760;15.942;2023-11-21T03:42:58;37.35;;;27.52;;
24411;SDS011;12544;46.760;15.942;2023-11-21T03:45:24;41.67;;;26.45;;
24411;SDS011;12544;46.760;15.942;2023-11-21T03:47:49;36.15;;;25.83;;
24411;SDS011;12544;46.760;15.942;2023-11-21T03:50:15;34.72;;;26.67;;
24411;SDS011;12544;46.760;15.942;2023-11-21T03:52:41;33.45;;;25.13;;
24411;SDS011;12544;46.760;15.942;2023-11-21T03:55:07;34.90;;;25.67;;
24411;SDS011;12544;46.760;15.942;2023-11-21T03:57:33;35.22;;;25.58;;
24411;SDS011;12544;46.760;15.942;2023-11-21T03:59:59;34.08;;;25.38;;
24411;SDS011;12544;46.760;15.942;2023-11-21T04:02:24;35.78;;;25.77;;
24411;SDS011;12544;46.760;15.942;2023-11-21T04:04:51;34.20;;;23.23;;
24411;SDS011;12544;46.760;15.942;2023-11-21T04:07:17;35.97;;;25.33;;
24411;SDS011;12544;46.760;15.942;2023-11-21T04:09:42;47.35;;;27.08;;
24411;SDS011;12544;46.760;15.942;2023-11-21T04:12:08;34.83;;;24.80;;
24411;SDS011;12544;46.760;15.942;2023-11-21T04:14:34;35.53;;;26.15;;
24411;SDS011;12544;46.760;15.942;2023-11-21T04:17:00;31.52;;;25.20;;
24411;SDS011;12544;46.760;15.942;2023-11-21T04:19:26;39.65;;;25.30;;
24411;SDS011;12544;46.760;15.942;2023-11-21T04:21:51;31.98;;;23.55;;
24411;SDS011;12544;46.760;15.942;2023-11-21T04:24:17;31.60;;;25.00;;
24411;SDS011;12544;46.760;15.942;2023-11-21T04:26:45;36.30;;;25.08;;
24411;SDS011;12544;46.760;15.942;2023-11-21T04:29:11;35.10;;;27.35;;
24411;SDS011;12544;46.760;15.942;2023-11-21T04:31:37;39.13;;;27.75;;
24411;SDS011;12544;46.760;15.942;2023-11-21T04:34:03;38.50;;;26.42;;
24411;SDS011;12544;46.760;15.942;2023-11-21T04:36:29;35.05;;;24.65;;
24411;SDS011;12544;46.760;15.942;2023-11-21T04:38:59;37.67;;;24.95;;
24411;SDS011;12544;46.760;15.942;2023-11-21T04:41:24;31.83;;;24.15;;
24411;SDS011;12544;46.760;15.942;2023-11-21T04:43:50;30.48;;;22.98;;
24411;SDS011;12544;46.760;15.942;2023-11-21T04:46:16;31.98;;;23.65;;
24411;SDS011;12544;46.760;15.942;2023-11-21T04:48:41;34.97;;;26.13;;
24411;SDS011;12544;46.760;15.942;2023-11-21T04:51:07;36.88;;;26.33;;
24411;SDS011;12544;46.760;15.942;2023-11-21T04:53:32;128.30;;;58.95;;
24411;SDS011;12544;46.760;15.942;2023-11-21T04:55:59;80.13;;;39.53;;
24411;SDS011;12544;46.760;15.942;2023-11-21T04:58:25;51.63;;;33.08;;
24411;SDS011;12544;46.760;15.942;2023-11-21T05:00:51;39.22;;;27.20;;
24411;SDS011;12544;46.760;15.942;2023-11-21T05:03:16;33.72;;;25.63;;
24411;SDS011;12544;46.760;15.942;2023-11-21T05:05:42;38.78;;;27.98;;
24411;SDS011;12544;46.760;15.942;2023-11-21T05:08:07;39.80;;;27.92;;
24411;SDS011;12544;46.760;15.942;2023-11-21T05:10:33;42.88;;;28.15;;
24411;SDS011;12544;46.760;15.942;2023-11-21T05:12:59;33.17;;;26.00;;
24411;SDS011;12544;46.760;15.942;2023-11-21T05:15:25;47.67;;;29.38;;
24411;SDS011;12544;46.760;15.942;2023-11-21T05:17:52;57.97;;;30.92;;
24411;SDS011;12544;46.760;15.942;2023-11-21T05:20:18;60.40;;;29.65;;
24411;SDS011;12544;46.760;15.942;2023-11-21T05:22:46;38.90;;;28.58;;
24411;SDS011;12544;46.760;15.942;2023-11-21T05:25:13;39.28;;;26.23;;
24411;SDS011;12544;46.760;15.942;2023-11-21T05:27:39;42.58;;;27.55;;
24411;SDS011;12544;46.760;15.942;2023-11-21T05:30:05;38.90;;;25.83;;
24411;SDS011;12544;46.760;15.942;2023-11-21T05:32:32;42.67;;;27.52;;
24411;SDS011;12544;46.760;15.942;2023-11-21T05:34:58;44.08;;;27.83;;
24411;SDS011;12544;46.760;15.942;2023-11-21T05:37:24;42.08;;;28.55;;
24411;SDS011;12544;46.760;15.942;2023-11-21T05:39:52;43.42;;;25.60;;
24411;SDS011;12544;46.760;15.942;2023-11-21T05:42:18;44.90;;;25.30;;
24411;SDS011;12544;46.760;15.942;2023-11-21T05:44:44;46.60;;;26.17;;
24411;SDS011;12544;46.760;15.942;2023-11-21T05:47:10;46.10;;;27.58;;
24411;SDS011;12544;46.760;15.942;2023-11-21T05:49:36;47.25;;;26.85;;
24411;SDS011;12544;46.760;15.942;2023-11-21T05:52:02;40.75;;;26.58;;
24411;SDS011;12544;46.760;15.942;2023-11-21T05:54:27;36.15;;;25.25;;
24411;SDS011;12544;46.760;15.942;2023-11-21T05:56:53;43.25;;;26.13;;
24411;SDS011;12544;46.760;15.942;2023-11-21T05:59:19;39.25;;;26.25;;
24411;SDS011;12544;46.760;15.942;2023-11-21T06:01:45;41.25;;;27.52;;
24411;SDS011;12544;46.760;15.942;2023-11-21T06:04:11;38.70;;;26.50;;
24411;SDS011;12544;46.760;15.942;2023-11-21T06:06:37;36.63;;;25.80;;
24411;SDS011;12544;46.760;15.942;2023-11-21T06:09:04;41.25;;;25.75;;
24411;SDS011;12544;46.760;15.942;2023-11-21T06:11:31;38.78;;;25.80;;
24411;SDS011;12544;46.760;15.942;2023-11-21T06:13:57;51.35;;;27.73;;
24411;SDS011;12544;46.760;15.942;2023-11-21T06:16:23;45.58;;;27.25;;
24411;SDS011;12544;46.760;15.942;2023-11-21T06:18:49;39.30;;;27.80;;
24411;SDS011;12544;46.760;15.942;2023-11-21T06:21:15;33.00;;;24.77;;
24411;SDS011;12544;46.760;15.942;2023-11-21T06:23:41;31.50;;;24.25;;
24411;SDS011;12544;46.760;15.942;2023-11-21T06:26:07;44.63;;;31.80;;
24411;SDS011;12544;46.760;15.942;2023-11-21T06:28:34;36.33;;;26.90;;
24411;SDS011;12544;46.760;15.942;2023-11-21T06:34:23;32.63;;;23.73;;
24411;SDS011;12544;46.760;15.942;2023-11-21T06:36:48;39.75;;;25.17;;
24411;SDS011;12544;46.760;15.942;2023-11-21T06:39:14;33.08;;;24.20;;
24411;SDS011;12544;46.760;15.942;2023-11-21T06:41:41;36.00;;;26.85;;
24411;SDS011;12544;46.760;15.942;2023-11-21T06:44:08;37.83;;;26.95;;
24411;SDS011;12544;46.760;15.942;2023-11-21T06:46:33;38.22;;;24.58;;
24411;SDS011;12544;46.760;15.942;2023-11-21T06:48:59;35.30;;;26.65;;
24411;SDS011;12544;46.760;15.942;2023-11-21T06:51:25;36.13;;;26.10;;
24411;SDS011;12544;46.760;15.942;2023-11-21T06:53:50;33.17;;;27.67;;
24411;SDS011;12544;46.760;15.942;2023-11-21T06:56:19;33.30;;;26.35;;
24411;SDS011;12544;46.760;15.942;2023-11-21T06:58:45;35.15;;;26.15;;
24411;SDS011;12544;46.760;15.942;2023-11-21T07:01:12;40.00;;;26.50;;
24411;SDS011;12544;46.760;15.942;2023-11-21T07:03:38;31.63;;;24.80;;
24411;SDS011;12544;46.760;15.942;2023-11-21T07:06:04;37.13;;;26.33;;
24411;SDS011;12544;46.760;15.942;2023-11-21T07:08:30;35.97;;;26.02;;
24411;SDS011;12544;46.760;15.942;2023-11-21T07:14:18;34.75;;;24.52;;
24411;SDS011;12544;46.760;15.942;2023-11-21T07:16:45;36.40;;;26.38;;
24411;SDS011;12544;46.760;15.942;2023-11-21T07:19:11;38.83;;;27.05;;
24411;SDS011;12544;46.760;15.942;2023-11-21T07:24:58;35.72;;;26.35;;
24411;SDS011;12544;46.760;15.942;2023-11-21T07:27:24;34.72;;;26.35;;
24411;SDS011;12544;46.760;15.942;2023-11-21T07:29:50;38.30;;;26.75;;
24411;SDS011;12544;46.760;15.942;2023-11-21T07:32:15;33.80;;;25.05;;
24411;SDS011;12544;46.760;15.942;2023-11-21T07:34:41;32.00;;;25.30;;
24411;SDS011;12544;46.760;15.942;2023-11-21T07:37:07;41.67;;;27.05;;
24411;SDS011;12544;46.760;15.942;2023-11-21T07:39:34;34.13;;;26.02;;
24411;SDS011;12544;46.760;15.942;2023-11-21T07:42:01;35.15;;;25.60;;
24411;SDS011;12544;46.760;15.942;2023-11-21T07:44:27;37.78;;;26.08;;
24411;SDS011;12544;46.760;15.942;2023-11-21T07:50:15;32.42;;;25.15;;
24411;SDS011;12544;46.760;15.942;2023-11-21T07:52:42;35.83;;;26.25;;
24411;SDS011;12544;46.760;15.942;2023-11-21T07:58:29;33.30;;;26.58;;
24411;SDS011;12544;46.760;15.942;2023-11-21T08:00:56;32.60;;;25.40;;
24411;SDS011;12544;46.760;15.942;2023-11-21T08:03:21;35.75;;;25.58;;
24411;SDS011;12544;46.760;15.942;2023-11-21T08:05:47;35.75;;;25.63;;
24411;SDS011;12544;46.760;15.942;2023-11-21T08:11:34;36.58;;;28.00;;
24411;SDS011;12544;46.760;15.942;2023-11-21T08:14:00;37.40;;;28.25;;
24411;SDS011;12544;46.760;15.942;2023-11-21T08:16:26;36.50;;;26.65;;
24411;SDS011;12544;46.760;15.942;2023-11-21T08:18:52;32.42;;;24.88;;
24411;SDS011;12544;46.760;15.942;2023-11-21T08:21:19;32.78;;;23.90;;
24411;SDS011;12544;46.760;15.942;2023-11-21T08:23:45;29.92;;;23.30;;
24411;SDS011;12544;46.760;15.942;2023-11-21T08:26:10;35.60;;;23.75;;
24411;SDS011;12544;46.760;15.942;2023-11-21T08:28:36;31.85;;;24.48;;
24411;SDS011;12544;46.760;15.942;2023-11-21T08:31:02;32.33;;;24.65;;
24411;SDS011;12544;46.760;15.942;2023-11-21T08:33:29;33.53;;;23.80;;
24411;SDS011;12544;46.760;15.942;2023-11-21T08:35:55;32.72;;;23.48;;
24411;SDS011;12544;46.760;15.942;2023-11-21T08:38:20;38.00;;;26.70;;
24411;SDS011;12544;46.760;15.942;2023-11-21T08:40:46;43.03;;;26.02;;
24411;SDS011;12544;46.760;15.942;2023-11-21T08:43:11;33.05;;;23.40;;
24411;SDS011;12544;46.760;15.942;2023-11-21T08:45:39;30.42;;;24.20;;
24411;SDS011;12544;46.760;15.942;2023-11-21T08:48:04;33.55;;;25.67;;
24411;SDS011;12544;46.760;15.942;2023-11-21T08:50:30;36.10;;;25.88;;
24411;SDS011;12544;46.760;15.942;2023-11-21T08:52:56;33.30;;;26.08;;
24411;SDS011;12544;46.760;15.942;2023-11-21T08:55:21;34.33;;;26.50;;
24411;SDS011;12544;46.760;15.942;2023-11-21T08:57:47;34.70;;;26.75;;
24411;SDS011;12544;46.760;15.942;2023-11-21T09:00:13;40.30;;;28.42;;
24411;SDS011;12544;46.760;15.942;2023-11-21T09:02:43;35.63;;;26.13;;
24411;SDS011;12544;46.760;15.942;2023-11-21T09:05:09;35.28;;;26.73;;
24411;SDS011;12544;46.760;15.942;2023-11-21T09:07:36;36.97;;;27.38;;
24411;SDS011;12544;46.760;15.942;2023-11-21T09:10:03;33.85;;;28.02;;
24411;SDS011;12544;46.760;15.942;2023-11-21T09:12:32;37.33;;;26.48;;
24411;SDS011;12544;46.760;15.942;2023-11-21T09:15:00;37.17;;;26.45;;
24411;SDS011;12544;46.760;15.942;2023-11-21T09:17:29;37.05;;;25.88;;
24411;SDS011;12544;46.760;15.942;2023-11-21T09:19:55;37.03;;;27.23;;
24411;SDS011;12544;46.760;15.942;2023-11-21T09:22:22;39.88;;;26.75;;
24411;SDS011;12544;46.760;15.942;2023-11-21T09:24:49;40.28;;;27.02;;
24411;SDS011;12544;46.760;15.942;2023-11-21T09:27:16;36.72;;;26.65;;
24411;SDS011;12544;46.760;15.942;2023-11-21T09:29:42;37.72;;;26.38;;
24411;SDS011;12544;46.760;15.942;2023-11-21T09:32:08;39.00;;;26.35;;
24411;SDS011;12544;46.760;15.942;2023-11-21T09:34:37;35.65;;;26.38;;
24411;SDS011;12544;46.760;15.942;2023-11-21T09:37:03;33.03;;;25.60;;
24411;SDS011;12544;46.760;15.942;2023-11-21T09:39:31;32.92;;;25.55;;
24411;SDS011;12544;46.760;15.942;2023-11-21T09:47:26;30.65;;;24.38;;
24411;SDS011;12544;46.760;15.942;2023-11-21T09:49:53;30.63;;;23.00;;
24411;SDS011;12544;46.760;15.942;2023-11-21T09:52:26;34.38;;;24.60;;
24411;SDS011;12544;46.760;15.942;2023-11-21T09:54:53;33.63;;;24.67;;
24411;SDS011;12544;46.760;15.942;2023-11-21T09:57:22;31.25;;;23.50;;
24411;SDS011;12544;46.760;15.942;2023-11-21T09:59:52;33.72;;;23.95;;
24411;SDS011;12544;46.760;15.942;2023-11-21T10:02:30;34.60;;;24.30;;
24411;SDS011;12544;46.760;15.942;2023-11-21T10:05:01;38.50;;;25.08;;
24411;SDS011;12544;46.760;15.942;2023-11-21T10:07:28;35.70;;;25.35;;
24411;SDS011;12544;46.760;15.942;2023-11-21T10:09:56;28.60;;;24.30;;
24411;SDS011;12544;46.760;15.942;2023-11-21T10:12:24;31.63;;;23.98;;
24411;SDS011;12544;46.760;15.942;2023-11-21T10:14:51;30.00;;;23.45;;
24411;SDS011;12544;46.760;15.942;2023-11-21T10:17:19;30.70;;;23.75;;
24411;SDS011;12544;46.760;15.942;2023-11-21T10:19:47;28.83;;;22.40;;
24411;SDS011;12544;46.760;15.942;2023-11-21T10:22:14;25.45;;;21.50;;
24411;SDS011;12544;46.760;15.942;2023-11-21T10:24:41;30.70;;;24.70;;
24411;SDS011;12544;46.760;15.942;2023-11-21T10:27:08;24.85;;;22.15;;
24411;SDS011;12544;46.760;15.942;2023-11-21T10:29:34;31.45;;;25.42;;
24411;SDS011;12544;46.760;15.942;2023-11-21T10:32:01;26.05;;;21.42;;
24411;SDS011;12544;46.760;15.942;2023-11-21T10:34:30;24.80;;;19.67;;
24411;SDS011;12544;46.760;15.942;2023-11-21T10:36:56;25.20;;;20.98;;
24411;SDS011;12544;46.760;15.942;2023-11-21T10:39:23;25.27;;;17.63;;
24411;SDS011;12544;46.760;15.942;2023-11-21T10:41:52;22.33;;;16.42;;
24411;SDS011;12544;46.760;15.942;2023-11-21T10:44:20;26.30;;;15.82;;
24411;SDS011;12544;46.760;15.942;2023-11-21T10:46:53;18.33;;;16.35;;
24411;SDS011;12544;46.760;15.942;2023-11-21T10:49:25;16.00;;;14.20;;
24411;SDS011;12544;46.760;15.942;2023-11-21T10:51:52;17.02;;;14.15;;
24411;SDS011;12544;46.760;15.942;2023-11-21T10:54:19;15.52;;;14.00;;
24411;SDS011;12544;46.760;15.942;2023-11-21T10:56:46;16.40;;;14.70;;
24411;SDS011;12544;46.760;15.942;2023-11-21T10:59:16;17.88;;;14.30;;
24411;SDS011;12544;46.760;15.942;2023-11-21T11:01:42;16.70;;;14.30;;
24411;SDS011;12544;46.760;15.942;2023-11-21T11:04:11;16.70;;;15.00;;
24411;SDS011;12544;46.760;15.942;2023-11-21T11:06:51;14.52;;;13.02;;
24411;SDS011;12544;46.760;15.942;2023-11-21T11:09:21;16.67;;;13.73;;
24411;SDS011;12544;46.760;15.942;2023-11-21T11:11:47;15.00;;;12.77;;
24411;SDS011;12544;46.760;15.942;2023-11-21T11:14:14;14.68;;;12.52;;
24411;SDS011;12544;46.760;15.942;2023-11-21T11:16:41;11.63;;;10.45;;
24411;SDS011;12544;46.760;15.942;2023-11-21T11:19:08;11.85;;;10.60;;
24411;SDS011;12544;46.760;15.942;2023-11-21T11:27:33;14.23;;;9.65;;
24411;SDS011;12544;46.760;15.942;2023-11-21T11:33:03;11.00;;;9.45;;
24411;SDS011;12544;46.760;15.942;2023-11-21T11:38:08;11.65;;;9.27;;
24411;SDS011;12544;46.760;15.942;2023-11-21T11:40:39;10.07;;;9.07;;
24411;SDS011;12544;46.760;15.942;2023-11-21T11:43:06;9.27;;;8.35;;
24411;SDS011;12544;46.760;15.942;2023-11-21T11:45:33;11.68;;;8.48;;
24411;SDS011;12544;46.760;15.942;2023-11-21T11:48:00;9.93;;;8.52;;
24411;SDS011;12544;46.760;15.942;2023-11-21T11:50:27;11.45;;;8.38;;
24411;SDS011;12544;46.760;15.942;2023-11-21T11:52:53;8.80;;;7.90;;
24411;SDS011;12544;46.760;15.942;2023-11-21T11:55:22;11.60;;;7.97;;
24411;SDS011;12544;46.760;15.942;2023-11-21T11:57:53;8.98;;;6.80;;
24411;SDS011;12544;46.760;15.942;2023-11-21T12:00:22;8.73;;;6.78;;
24411;SDS011;12544;46.760;15.942;2023-11-21T12:03:02;8.52;;;6.63;;
24411;SDS011;12544;46.760;15.942;2023-11-21T12:05:29;7.95;;;6.90;;
24411;SDS011;12544;46.760;15.942;2023-11-21T12:08:02;7.40;;;6.47;;
24411;SDS011;12544;46.760;15.942;2023-11-21T12:10:36;7.15;;;6.03;;
24411;SDS011;12544;46.760;15.942;2023-11-21T12:13:08;6.82;;;6.15;;
24411;SDS011;12544;46.760;15.942;2023-11-21T12:15:35;6.25;;;5.65;;
24411;SDS011;12544;46.760;15.942;2023-11-21T12:18:02;6.60;;;4.80;;
24411;SDS011;12544;46.760;15.942;2023-11-21T12:20:28;5.88;;;4.93;;
24411;SDS011;12544;46.760;15.942;2023-11-21T12:22:59;5.70;;;4.47;;
24411;SDS011;12544;46.760;15.942;2023-11-21T12:25:25;5.75;;;5.15;;
24411;SDS011;12544;46.760;15.942;2023-11-21T12:27:54;6.28;;;4.55;;
24411;SDS011;12544;46.760;15.942;2023-11-21T12:30:21;6.57;;;4.38;;
24411;SDS011;12544;46.760;15.942;2023-11-21T12:32:51;5.03;;;4.07;;
24411;SDS011;12544;46.760;15.942;2023-11-21T12:35:18;5.95;;;4.20;;
24411;SDS011;12544;46.760;15.942;2023-11-21T12:37:45;4.45;;;3.85;;
24411;SDS011;12544;46.760;15.942;2023-11-21T12:40:12;4.65;;;3.38;;
24411;SDS011;12544;46.760;15.942;2023-11-21T12:42:43;5.05;;;3.88;;
24411;SDS011;12544;46.760;15.942;2023-11-21T12:48:01;4.55;;;3.55;;
24411;SDS011;12544;46.760;15.942;2023-11-21T12:50:33;4.43;;;3.60;;
24411;SDS011;12544;46.760;15.942;2023-11-21T12:53:02;5.72;;;3.90;;
24411;SDS011;12544;46.760;15.942;2023-11-21T12:55:37;4.88;;;3.80;;
24411;SDS011;12544;46.760;15.942;2023-11-21T12:58:03;5.10;;;3.95;;
24411;SDS011;12544;46.760;15.942;2023-11-21T13:00:42;5.30;;;3.90;;
24411;SDS011;12544;46.760;15.942;2023-11-21T13:03:11;4.40;;;3.80;;
24411;SDS011;12544;46.760;15.942;2023-11-21T13:05:41;6.75;;;5.53;;
24411;SDS011;12544;46.760;15.942;2023-11-21T13:08:10;6.28;;;4.68;;
24411;SDS011;12544;46.760;15.942;2023-11-21T13:10:38;5.15;;;4.65;;
24411;SDS011;12544;46.760;15.942;2023-11-21T13:13:07;9.88;;;4.88;;
24411;SDS011;12544;46.760;15.942;2023-11-21T13:15:34;6.35;;;4.82;;
24411;SDS011;12544;46.760;15.942;2023-11-21T13:18:05;5.90;;;4.53;;
24411;SDS011;12544;46.760;15.942;2023-11-21T13:20:31;7.55;;;5.95;;
24411;SDS011;12544;46.760;15.942;2023-11-21T13:26:19;9.73;;;6.63;;
24411;SDS011;12544;46.760;15.942;2023-11-21T13:28:46;7.50;;;5.50;;
24411;SDS011;12544;46.760;15.942;2023-11-21T13:31:12;6.53;;;5.60;;
24411;SDS011;12544;46.760;15.942;2023-11-21T13:33:45;6.78;;;5.40;;
24411;SDS011;12544;46.760;15.942;2023-11-21T13:36:23;7.68;;;4.82;;
24411;SDS011;12544;46.760;15.942;2023-11-21T13:38:50;6.03;;;5.15;;
24411;SDS011;12544;46.760;15.942;2023-11-21T13:41:17;5.47;;;4.55;;
24411;SDS011;12544;46.760;15.942;2023-11-21T13:43:44;9.75;;;6.20;;
24411;SDS011;12544;46.760;15.942;2023-11-21T13:46:24;8.48;;;6.43;;
24411;SDS011;12544;46.760;15.942;2023-11-21T13:48:50;8.63;;;5.82;;
24411;SDS011;12544;46.760;15.942;2023-11-21T13:51:20;7.90;;;6.20;;
24411;SDS011;12544;46.760;15.942;2023-11-21T13:53:54;8.65;;;6.68;;
24411;SDS011;12544;46.760;15.942;2023-11-21T13:56:20;6.82;;;5.75;;
24411;SDS011;12544;46.760;15.942;2023-11-21T13:58:49;8.50;;;6.88;;
24411;SDS011;12544;46.760;15.942;2023-11-21T14:01:19;9.30;;;8.38;;
24411;SDS011;12544;46.760;15.942;2023-11-21T14:03:57;8.52;;;6.72;;
24411;SDS011;12544;46.760;15.942;2023-11-21T14:06:48;8.10;;;6.32;;
24411;SDS011;12544;46.760;15.942;2023-11-21T14:09:20;7.05;;;6.18;;
24411;SDS011;12544;46.760;15.942;2023-11-21T14:12:00;8.23;;;6.40;;
24411;SDS011;12544;46.760;15.942;2023-11-21T14:14:31;7.40;;;5.85;;
24411;SDS011;12544;46.760;15.942;2023-11-21T14:16:57;7.35;;;5.93;;
24411;SDS011;12544;46.760;15.942;2023-11-21T14:19:23;8.98;;;6.20;;
24411;SDS011;12544;46.760;15.942;2023-11-21T14:21:53;6.47;;;5.88;;
24411;SDS011;12544;46.760;15.942;2023-11-21T14:24:18;6.03;;;5.43;;
24411;SDS011;12544;46.760;15.942;2023-11-21T14:26:45;6.80;;;6.13;;
24411;SDS011;12544;46.760;15.942;2023-11-21T14:29:12;9.55;;;6.40;;
24411;SDS011;12544;46.760;15.942;2023-11-21T14:31:41;8.07;;;6.03;;
24411;SDS011;12544;46.760;15.942;2023-11-21T14:34:07;8.02;;;5.60;;
24411;SDS011;12544;46.760;15.942;2023-11-21T14:36:33;9.13;;;5.22;;
24411;SDS011;12544;46.760;15.942;2023-11-21T14:38:59;6.28;;;5.47;;
24411;SDS011;12544;46.760;15.942;2023-11-21T14:41:25;6.55;;;5.10;;
24411;SDS011;12544;46.760;15.942;2023-11-21T14:43:53;6.22;;;5.63;;
24411;SDS011;12544;46.760;15.942;2023-11-21T14:49:42;8.10;;;5.78;;
24411;SDS011;12544;46.760;15.942;2023-11-21T14:52:18;6.55;;;5.43;;
24411;SDS011;12544;46.760;15.942;2023-11-21T14:55:07;12.45;;;7.97;;
24411;SDS011;12544;46.760;15.942;2023-11-21T14:57:57;10.30;;;6.18;;
24411;SDS011;12544;46.760;15.942;2023-11-21T15:00:27;7.47;;;6.18;;